sensor_id;sensor_type;location;lat;lon;timestamp;pressure;altitude;pressure_sealevel;temperature;humidity
78615;BME280;67937;52.488;20.952;2024-02-14T00:02:13;101108.80;;;3.85;85.33
78615;BME280;67937;52.488;20.952;2024-02-14T00:04:41;101107.86;;;3.87;85.53
78615;BME280;67937;52.488;20.952;2024-02-14T00:07:09;101110.41;;;3.84;85.30
78615;BME280;67937;52.488;20.952;2024-02-14T00:09:37;101114.75;;;3.81;85.34
78615;BME280;67937;52.488;20.952;2024-02-14T00:12:06;101114.71;;;3.77;85.72
78615;BME280;67937;52.488;20.952;2024-02-14T00:14:35;101113.14;;;3.77;85.67
78615;BME280;67937;52.488;20.952;2024-02-14T00:17:04;101114.98;;;3.75;85.71
78615;BME280;67937;52.488;20.952;2024-02-14T00:19:33;101117.88;;;3.72;85.78
78615;BME280;67937;52.488;20.952;2024-02-14T00:22:01;101121.66;;;3.69;85.91
78615;BME280;67937;52.488;20.952;2024-02-14T00:24:29;101117.11;;;3.65;85.97
78615;BME280;67937;52.488;20.952;2024-02-14T00:26:58;101120.41;;;3.61;85.92
78615;BME280;67937;52.488;20.952;2024-02-14T00:29:27;101116.09;;;3.55;85.96
78615;BME280;67937;52.488;20.952;2024-02-14T00:31:54;101121.36;;;3.50;85.98
78615;BME280;67937;52.488;20.952;2024-02-14T00:34:22;101122.83;;;3.43;85.99
78615;BME280;67937;52.488;20.952;2024-02-14T00:36:51;101128.45;;;3.37;86.17
78615;BME280;67937;52.488;20.952;2024-02-14T00:39:19;101131.66;;;3.31;86.03
78615;BME280;67937;52.488;20.952;2024-02-14T00:41:47;101130.92;;;3.18;85.83
78615;BME280;67937;52.488;20.952;2024-02-14T00:44:15;101127.11;;;3.03;86.15
78615;BME280;67937;52.488;20.952;2024-02-14T00:46:45;101127.70;;;2.96;86.52
78615;BME280;67937;52.488;20.952;2024-02-14T00:49:14;101125.70;;;2.94;86.56
78615;BME280;67937;52.488;20.952;2024-02-14T00:51:42;101128.61;;;2.91;86.59
78615;BME280;67937;52.488;20.952;2024-02-14T00:54:10;101131.33;;;2.87;86.55
78615;BME280;67937;52.488;20.952;2024-02-14T00:56:38;101134.07;;;2.84;86.69
78615;BME280;67937;52.488;20.952;2024-02-14T00:59:06;101136.66;;;2.80;86.72
78615;BME280;67937;52.488;20.952;2024-02-14T01:01:35;101140.98;;;2.76;86.54
78615;BME280;67937;52.488;20.952;2024-02-14T01:04:03;101142.92;;;2.69;86.49
78615;BME280;67937;52.488;20.952;2024-02-14T01:06:31;101146.64;;;2.62;86.43
78615;BME280;67937;52.488;20.952;2024-02-14T01:08:59;101146.98;;;2.53;86.08
78615;BME280;67937;52.488;20.952;2024-02-14T01:11:27;101153.90;;;2.38;86.20
78615;BME280;67937;52.488;20.952;2024-02-14T01:13:56;101152.75;;;2.31;86.38
78615;BME280;67937;52.488;20.952;2024-02-14T01:16:25;101154.38;;;2.24;86.33
78615;BME280;67937;52.488;20.952;2024-02-14T01:18:53;101156.54;;;2.16;86.20
78615;BME280;67937;52.488;20.952;2024-02-14T01:21:21;101159.05;;;2.03;86.20
78615;BME280;67937;52.488;20.952;2024-02-14T01:23:49;101155.78;;;1.96;86.54
78615;BME280;67937;52.488;20.952;2024-02-14T01:26:18;101158.95;;;1.95;86.79
78615;BME280;67937;52.488;20.952;2024-02-14T01:28:47;101158.92;;;1.96;86.76
78615;BME280;67937;52.488;20.952;2024-02-14T01:31:15;101155.63;;;1.95;86.80
78615;BME280;67937;52.488;20.952;2024-02-14T01:33:43;101153.98;;;1.93;87.02
78615;BME280;67937;52.488;20.952;2024-02-14T01:36:12;101155.90;;;1.87;87.23
78615;BME280;67937;52.488;20.952;2024-02-14T01:38:40;101155.70;;;1.88;87.32
78615;BME280;67937;52.488;20.952;2024-02-14T01:41:09;101152.61;;;1.86;87.19
78615;BME280;67937;52.488;20.952;2024-02-14T01:43:37;101152.24;;;1.75;87.19
78615;BME280;67937;52.488;20.952;2024-02-14T01:46:06;101154.16;;;1.70;87.45
78615;BME280;67937;52.488;20.952;2024-02-14T01:48:34;101153.51;;;1.68;87.27
78615;BME280;67937;52.488;20.952;2024-02-14T01:51:03;101152.50;;;1.55;86.84
78615;BME280;67937;52.488;20.952;2024-02-14T01:53:35;101155.23;;;1.45;87.11
78615;BME280;67937;52.488;20.952;2024-02-14T01:56:04;101159.45;;;1.43;87.51
78615;BME280;67937;52.488;20.952;2024-02-14T01:58:34;101159.84;;;1.42;87.22
78615;BME280;67937;52.488;20.952;2024-02-14T02:01:02;101159.95;;;1.39;87.13
78615;BME280;67937;52.488;20.952;2024-02-14T02:03:30;101161.30;;;1.34;86.96
78615;BME280;67937;52.488;20.952;2024-02-14T02:06:02;101166.48;;;1.28;86.82
78615;BME280;67937;52.488;20.952;2024-02-14T02:08:31;101169.40;;;1.11;86.58
78615;BME280;67937;52.488;20.952;2024-02-14T02:10:59;101174.61;;;0.99;86.63
78615;BME280;67937;52.488;20.952;2024-02-14T02:13:27;101171.81;;;0.86;86.97
78615;BME280;67937;52.488;20.952;2024-02-14T02:15:55;101172.27;;;0.82;87.07
78615;BME280;67937;52.488;20.952;2024-02-14T02:18:23;101170.61;;;0.80;87.17
78615;BME280;67937;52.488;20.952;2024-02-14T02:20:52;101172.35;;;0.80;86.99
78615;BME280;67937;52.488;20.952;2024-02-14T02:23:20;101174.05;;;0.80;86.95
78615;BME280;67937;52.488;20.952;2024-02-14T02:25:48;101170.27;;;0.79;86.78
78615;BME280;67937;52.488;20.952;2024-02-14T02:28:16;101170.14;;;0.78;86.55
78615;BME280;67937;52.488;20.952;2024-02-14T02:30:44;101168.84;;;0.74;86.58
78615;BME280;67937;52.488;20.952;2024-02-14T02:33:13;101174.88;;;0.69;86.41
78615;BME280;67937;52.488;20.952;2024-02-14T02:35:42;101174.25;;;0.66;86.49
78615;BME280;67937;52.488;20.952;2024-02-14T02:38:12;101176.25;;;0.63;86.31
78615;BME280;67937;52.488;20.952;2024-02-14T02:40:40;101177.18;;;0.60;86.27
78615;BME280;67937;52.488;20.952;2024-02-14T02:43:08;101177.80;;;0.57;86.23
78615;BME280;67937;52.488;20.952;2024-02-14T02:45:37;101182.73;;;0.53;86.23
78615;BME280;67937;52.488;20.952;2024-02-14T02:48:05;101179.86;;;0.50;86.21
78615;BME280;67937;52.488;20.952;2024-02-14T02:50:33;101182.44;;;0.45;86.15
78615;BME280;67937;52.488;20.952;2024-02-14T02:53:01;101182.81;;;0.36;86.18
78615;BME280;67937;52.488;20.952;2024-02-14T02:55:29;101186.61;;;0.30;86.21
78615;BME280;67937;52.488;20.952;2024-02-14T02:57:58;101185.83;;;0.26;86.41
78615;BME280;67937;52.488;20.952;2024-02-14T03:00:27;101188.45;;;0.26;86.41
78615;BME280;67937;52.488;20.952;2024-02-14T03:02:55;101192.20;;;0.29;86.66
78615;BME280;67937;52.488;20.952;2024-02-14T03:05:23;101192.14;;;0.31;86.49
78615;BME280;67937;52.488;20.952;2024-02-14T03:07:51;101191.64;;;0.30;86.52
78615;BME280;67937;52.488;20.952;2024-02-14T03:10:19;101193.59;;;0.28;86.51
78615;BME280;67937;52.488;20.952;2024-02-14T03:12:48;101199.02;;;0.19;86.51
78615;BME280;67937;52.488;20.952;2024-02-14T03:15:17;101199.88;;;0.12;86.64
78615;BME280;67937;52.488;20.952;2024-02-14T03:17:46;101198.20;;;0.09;86.92
78615;BME280;67937;52.488;20.952;2024-02-14T03:20:14;101203.66;;;0.13;86.95
78615;BME280;67937;52.488;20.952;2024-02-14T03:22:43;101203.21;;;0.18;86.79
78615;BME280;67937;52.488;20.952;2024-02-14T03:25:19;101207.36;;;0.18;86.84
78615;BME280;67937;52.488;20.952;2024-02-14T03:27:47;101205.63;;;0.19;86.83
78615;BME280;67937;52.488;20.952;2024-02-14T03:30:20;101206.57;;;0.16;86.65
78615;BME280;67937;52.488;20.952;2024-02-14T03:32:49;101205.05;;;0.13;86.69
78615;BME280;67937;52.488;20.952;2024-02-14T03:35:19;101203.63;;;0.07;86.63
78615;BME280;67937;52.488;20.952;2024-02-14T03:37:49;101208.35;;;0.06;86.72
78615;BME280;67937;52.488;20.952;2024-02-14T03:40:19;101204.05;;;0.04;86.72
78615;BME280;67937;52.488;20.952;2024-02-14T03:42:48;101210.95;;;0.05;86.92
78615;BME280;67937;52.488;20.952;2024-02-14T03:45:16;101206.63;;;0.05;86.97
78615;BME280;67937;52.488;20.952;2024-02-14T03:47:44;101206.23;;;0.07;87.01
78615;BME280;67937;52.488;20.952;2024-02-14T03:50:12;101208.96;;;0.09;87.01
78615;BME280;67937;52.488;20.952;2024-02-14T03:52:41;101213.52;;;0.07;86.85
78615;BME280;67937;52.488;20.952;2024-02-14T03:55:10;101215.30;;;0.05;86.77
78615;BME280;67937;52.488;20.952;2024-02-14T03:57:40;101215.70;;;0.03;86.67
78615;BME280;67937;52.488;20.952;2024-02-14T04:00:08;101214.73;;;-0.01;86.61
78615;BME280;67937;52.488;20.952;2024-02-14T04:02:37;101216.48;;;-0.09;86.50
78615;BME280;67937;52.488;20.952;2024-02-14T04:05:05;101217.86;;;-0.17;86.52
78615;BME280;67937;52.488;20.952;2024-02-14T04:07:33;101221.36;;;-0.27;86.50
78615;BME280;67937;52.488;20.952;2024-02-14T04:10:03;101218.88;;;-0.32;86.63
78615;BME280;67937;52.488;20.952;2024-02-14T04:12:31;101221.82;;;-0.41;86.55
78615;BME280;67937;52.488;20.952;2024-02-14T04:14:59;101224.75;;;-0.48;86.65
78615;BME280;67937;52.488;20.952;2024-02-14T04:17:27;101226.05;;;-0.52;86.66
78615;BME280;67937;52.488;20.952;2024-02-14T04:19:55;101228.89;;;-0.55;86.64
78615;BME280;67937;52.488;20.952;2024-02-14T04:22:23;101225.25;;;-0.56;86.66
78615;BME280;67937;52.488;20.952;2024-02-14T04:24:51;101230.63;;;-0.56;86.62
78615;BME280;67937;52.488;20.952;2024-02-14T04:27:19;101232.91;;;-0.57;86.62
78615;BME280;67937;52.488;20.952;2024-02-14T04:29:47;101234.44;;;-0.56;86.70
78615;BME280;67937;52.488;20.952;2024-02-14T04:32:15;101235.52;;;-0.58;86.54
78615;BME280;67937;52.488;20.952;2024-02-14T04:34:43;101237.38;;;-0.65;86.62
78615;BME280;67937;52.488;20.952;2024-02-14T04:37:11;101237.58;;;-0.66;86.77
78615;BME280;67937;52.488;20.952;2024-02-14T04:39:40;101241.16;;;-0.62;86.66
78615;BME280;67937;52.488;20.952;2024-02-14T04:42:08;101241.75;;;-0.66;86.63
78615;BME280;67937;52.488;20.952;2024-02-14T04:44:36;101244.91;;;-0.68;86.73
78615;BME280;67937;52.488;20.952;2024-02-14T04:47:05;101249.69;;;-0.65;86.72
78615;BME280;67937;52.488;20.952;2024-02-14T04:49:35;101246.19;;;-0.63;86.71
78615;BME280;67937;52.488;20.952;2024-02-14T04:52:04;101246.68;;;-0.61;86.56
78615;BME280;67937;52.488;20.952;2024-02-14T04:54:34;101250.29;;;-0.59;86.76
78615;BME280;67937;52.488;20.952;2024-02-14T04:57:02;101254.41;;;-0.58;86.88
78615;BME280;67937;52.488;20.952;2024-02-14T04:59:31;101259.59;;;-0.57;86.95
78615;BME280;67937;52.488;20.952;2024-02-14T05:01:59;101257.80;;;-0.54;86.88
78615;BME280;67937;52.488;20.952;2024-02-14T05:04:27;101256.24;;;-0.54;86.90
78615;BME280;67937;52.488;20.952;2024-02-14T05:06:56;101259.19;;;-0.54;86.74
78615;BME280;67937;52.488;20.952;2024-02-14T05:09:24;101262.48;;;-0.54;86.67
78615;BME280;67937;52.488;20.952;2024-02-14T05:11:52;101264.05;;;-0.55;86.75
78615;BME280;67937;52.488;20.952;2024-02-14T05:14:20;101262.52;;;-0.56;86.91
78615;BME280;67937;52.488;20.952;2024-02-14T05:16:48;101262.70;;;-0.56;86.81
78615;BME280;67937;52.488;20.952;2024-02-14T05:19:15;101263.56;;;-0.56;86.98
78615;BME280;67937;52.488;20.952;2024-02-14T05:21:43;101265.46;;;-0.56;87.14
78615;BME280;67937;52.488;20.952;2024-02-14T05:24:12;101265.26;;;-0.54;87.16
78615;BME280;67937;52.488;20.952;2024-02-14T05:26:40;101268.71;;;-0.54;87.05
78615;BME280;67937;52.488;20.952;2024-02-14T05:29:08;101270.32;;;-0.56;86.89
78615;BME280;67937;52.488;20.952;2024-02-14T05:31:43;101266.64;;;-0.63;86.86
78615;BME280;67937;52.488;20.952;2024-02-14T05:34:12;101266.73;;;-0.68;87.00
78615;BME280;67937;52.488;20.952;2024-02-14T05:36:40;101270.41;;;-0.69;86.93
78615;BME280;67937;52.488;20.952;2024-02-14T05:39:09;101271.45;;;-0.71;86.93
78615;BME280;67937;52.488;20.952;2024-02-14T05:41:37;101271.84;;;-0.72;86.87
78615;BME280;67937;52.488;20.952;2024-02-14T05:44:05;101272.48;;;-0.70;87.01
78615;BME280;67937;52.488;20.952;2024-02-14T05:46:33;101272.85;;;-0.72;86.87
78615;BME280;67937;52.488;20.952;2024-02-14T05:49:01;101277.58;;;-0.73;86.97
78615;BME280;67937;52.488;20.952;2024-02-14T05:51:30;101279.33;;;-0.75;86.84
78615;BME280;67937;52.488;20.952;2024-02-14T05:53:58;101286.95;;;-0.74;86.85
78615;BME280;67937;52.488;20.952;2024-02-14T05:56:26;101286.25;;;-0.75;86.83
78615;BME280;67937;52.488;20.952;2024-02-14T05:58:54;101286.42;;;-0.74;86.80
78615;BME280;67937;52.488;20.952;2024-02-14T06:01:22;101285.73;;;-0.74;86.75
78615;BME280;67937;52.488;20.952;2024-02-14T06:03:50;101290.40;;;-0.73;86.82
78615;BME280;67937;52.488;20.952;2024-02-14T06:06:18;101291.58;;;-0.71;86.82
78615;BME280;67937;52.488;20.952;2024-02-14T06:08:46;101295.88;;;-0.70;86.92
78615;BME280;67937;52.488;20.952;2024-02-14T06:11:14;101296.84;;;-0.66;87.06
78615;BME280;67937;52.488;20.952;2024-02-14T06:13:42;101293.83;;;-0.62;87.11
78615;BME280;67937;52.488;20.952;2024-02-14T06:16:10;101295.82;;;-0.57;87.01
78615;BME280;67937;52.488;20.952;2024-02-14T06:18:39;101298.88;;;-0.54;87.04
78615;BME280;67937;52.488;20.952;2024-02-14T06:21:07;101299.35;;;-0.51;87.04
78615;BME280;67937;52.488;20.952;2024-02-14T06:23:35;101303.27;;;-0.48;87.08
78615;BME280;67937;52.488;20.952;2024-02-14T06:26:05;101307.17;;;-0.44;87.15
78615;BME280;67937;52.488;20.952;2024-02-14T06:28:33;101308.65;;;-0.39;87.21
78615;BME280;67937;52.488;20.952;2024-02-14T06:31:01;101312.02;;;-0.34;87.04
78615;BME280;67937;52.488;20.952;2024-02-14T06:33:29;101307.77;;;-0.29;87.18
78615;BME280;67937;52.488;20.952;2024-02-14T06:35:57;101308.17;;;-0.23;87.44
78615;BME280;67937;52.488;20.952;2024-02-14T06:38:25;101306.14;;;-0.17;87.44
78615;BME280;67937;52.488;20.952;2024-02-14T06:40:53;101303.98;;;-0.13;87.45
78615;BME280;67937;52.488;20.952;2024-02-14T06:43:21;101303.58;;;-0.11;87.47
78615;BME280;67937;52.488;20.952;2024-02-14T06:45:49;101303.67;;;-0.07;87.39
78615;BME280;67937;52.488;20.952;2024-02-14T06:48:16;101304.80;;;-0.03;87.38
78615;BME280;67937;52.488;20.952;2024-02-14T06:50:48;101312.38;;;0.02;87.62
78615;BME280;67937;52.488;20.952;2024-02-14T06:53:17;101313.66;;;0.06;87.41
78615;BME280;67937;52.488;20.952;2024-02-14T06:55:45;101317.21;;;0.10;87.29
78615;BME280;67937;52.488;20.952;2024-02-14T06:58:13;101319.63;;;0.11;87.49
78615;BME280;67937;52.488;20.952;2024-02-14T07:00:41;101314.72;;;0.13;87.78
78615;BME280;67937;52.488;20.952;2024-02-14T07:03:09;101314.66;;;0.16;87.62
78615;BME280;67937;52.488;20.952;2024-02-14T07:05:37;101314.46;;;0.18;87.49
78615;BME280;67937;52.488;20.952;2024-02-14T07:08:06;101315.28;;;0.19;87.76
78615;BME280;67937;52.488;20.952;2024-02-14T07:10:34;101311.71;;;0.24;87.75
78615;BME280;67937;52.488;20.952;2024-02-14T07:13:02;101312.66;;;0.28;87.96
78615;BME280;67937;52.488;20.952;2024-02-14T07:15:30;101311.48;;;0.35;87.99
78615;BME280;67937;52.488;20.952;2024-02-14T07:17:58;101309.75;;;0.42;88.16
78615;BME280;67937;52.488;20.952;2024-02-14T07:20:26;101312.16;;;0.50;88.13
78615;BME280;67937;52.488;20.952;2024-02-14T07:22:54;101314.46;;;0.57;88.64
78615;BME280;67937;52.488;20.952;2024-02-14T07:25:23;101313.77;;;0.71;88.95
78615;BME280;67937;52.488;20.952;2024-02-14T07:27:51;101316.46;;;0.82;89.34
78615;BME280;67937;52.488;20.952;2024-02-14T07:30:19;101318.91;;;0.95;90.15
78615;BME280;67937;52.488;20.952;2024-02-14T07:32:47;101319.15;;;1.07;90.97
78615;BME280;67937;52.488;20.952;2024-02-14T07:35:15;101319.84;;;1.14;91.63
78615;BME280;67937;52.488;20.952;2024-02-14T07:37:43;101320.92;;;1.19;92.03
78615;BME280;67937;52.488;20.952;2024-02-14T07:40:11;101321.05;;;1.28;92.32
78615;BME280;67937;52.488;20.952;2024-02-14T07:42:39;101318.45;;;1.35;92.58
78615;BME280;67937;52.488;20.952;2024-02-14T07:45:08;101317.08;;;1.40;92.83
78615;BME280;67937;52.488;20.952;2024-02-14T07:47:36;101317.13;;;1.46;92.83
78615;BME280;67937;52.488;20.952;2024-02-14T07:50:04;101319.63;;;1.49;93.15
78615;BME280;67937;52.488;20.952;2024-02-14T07:52:32;101321.75;;;1.54;93.12
78615;BME280;67937;52.488;20.952;2024-02-14T07:55:00;101323.73;;;1.65;93.47
78615;BME280;67937;52.488;20.952;2024-02-14T07:57:28;101324.64;;;1.70;93.47
78615;BME280;67937;52.488;20.952;2024-02-14T07:59:56;101327.14;;;1.73;93.49
78615;BME280;67937;52.488;20.952;2024-02-14T08:02:24;101323.30;;;1.80;93.53
78615;BME280;67937;52.488;20.952;2024-02-14T08:04:54;101327.98;;;1.88;93.35
78615;BME280;67937;52.488;20.952;2024-02-14T08:07:22;101330.98;;;1.92;93.34
78615;BME280;67937;52.488;20.952;2024-02-14T08:09:50;101328.92;;;1.97;93.68
78615;BME280;67937;52.488;20.952;2024-02-14T08:12:18;101327.71;;;2.09;93.30
78615;BME280;67937;52.488;20.952;2024-02-14T08:14:46;101329.98;;;2.15;93.11
78615;BME280;67937;52.488;20.952;2024-02-14T08:17:14;101329.02;;;2.24;93.14
78615;BME280;67937;52.488;20.952;2024-02-14T08:19:42;101329.03;;;2.35;92.98
78615;BME280;67937;52.488;20.952;2024-02-14T08:22:10;101328.23;;;2.44;93.06
78615;BME280;67937;52.488;20.952;2024-02-14T08:24:38;101331.43;;;2.53;92.88
78615;BME280;67937;52.488;20.952;2024-02-14T08:27:06;101328.80;;;2.66;92.40
78615;BME280;67937;52.488;20.952;2024-02-14T08:29:34;101327.02;;;2.78;91.54
78615;BME280;67937;52.488;20.952;2024-02-14T08:32:03;101324.73;;;2.84;91.17
78615;BME280;67937;52.488;20.952;2024-02-14T08:34:31;101324.40;;;2.94;90.96
78615;BME280;67937;52.488;20.952;2024-02-14T08:36:59;101325.41;;;3.06;90.59
78615;BME280;67937;52.488;20.952;2024-02-14T08:39:27;101326.61;;;3.17;90.12
78615;BME280;67937;52.488;20.952;2024-02-14T08:41:55;101327.50;;;3.27;89.78
78615;BME280;67937;52.488;20.952;2024-02-14T08:44:23;101325.71;;;3.39;89.52
78615;BME280;67937;52.488;20.952;2024-02-14T08:46:51;101322.18;;;3.50;88.96
78615;BME280;67937;52.488;20.952;2024-02-14T08:49:20;101325.13;;;3.65;88.52
78615;BME280;67937;52.488;20.952;2024-02-14T08:51:48;101322.48;;;3.75;87.89
78615;BME280;67937;52.488;20.952;2024-02-14T08:54:16;101319.54;;;3.85;87.72
78615;BME280;67937;52.488;20.952;2024-02-14T08:56:44;101319.60;;;3.98;87.30
78615;BME280;67937;52.488;20.952;2024-02-14T08:59:12;101323.52;;;4.09;86.39
78615;BME280;67937;52.488;20.952;2024-02-14T09:01:40;101325.23;;;4.20;86.21
78615;BME280;67937;52.488;20.952;2024-02-14T09:04:08;101328.06;;;4.28;85.84
78615;BME280;67937;52.488;20.952;2024-02-14T09:06:36;101331.23;;;4.36;85.52
78615;BME280;67937;52.488;20.952;2024-02-14T09:09:05;101326.92;;;4.44;85.46
78615;BME280;67937;52.488;20.952;2024-02-14T09:11:37;101327.47;;;4.48;84.67
78615;BME280;67937;52.488;20.952;2024-02-14T09:14:05;101323.98;;;4.52;84.82
78615;BME280;67937;52.488;20.952;2024-02-14T09:16:33;101320.75;;;4.58;83.88
78615;BME280;67937;52.488;20.952;2024-02-14T09:19:01;101320.92;;;4.68;83.70
78615;BME280;67937;52.488;20.952;2024-02-14T09:21:30;101321.20;;;4.78;83.75
78615;BME280;67937;52.488;20.952;2024-02-14T09:23:59;101318.34;;;4.93;83.35
78615;BME280;67937;52.488;20.952;2024-02-14T09:26:27;101311.69;;;5.05;82.85
78615;BME280;67937;52.488;20.952;2024-02-14T09:28:55;101305.93;;;5.18;81.13
78615;BME280;67937;52.488;20.952;2024-02-14T09:31:23;101303.91;;;5.24;80.18
78615;BME280;67937;52.488;20.952;2024-02-14T09:33:51;101303.95;;;5.36;80.00
78615;BME280;67937;52.488;20.952;2024-02-14T09:36:24;101306.19;;;5.45;78.83
78615;BME280;67937;52.488;20.952;2024-02-14T09:38:52;101304.33;;;5.48;78.63
78615;BME280;67937;52.488;20.952;2024-02-14T09:41:37;101301.58;;;5.59;78.18
78615;BME280;67937;52.488;20.952;2024-02-14T09:44:07;101299.63;;;5.67;77.33
78615;BME280;67937;52.488;20.952;2024-02-14T09:46:36;101301.48;;;5.72;77.02
78615;BME280;67937;52.488;20.952;2024-02-14T09:49:05;101304.04;;;5.78;77.37
78615;BME280;67937;52.488;20.952;2024-02-14T09:51:33;101301.48;;;5.85;77.59
78615;BME280;67937;52.488;20.952;2024-02-14T09:54:02;101301.16;;;6.00;77.40
78615;BME280;67937;52.488;20.952;2024-02-14T09:56:31;101301.76;;;6.10;76.88
78615;BME280;67937;52.488;20.952;2024-02-14T09:59:01;101295.51;;;6.12;75.89
78615;BME280;67937;52.488;20.952;2024-02-14T10:01:29;101297.94;;;6.21;76.12
78615;BME280;67937;52.488;20.952;2024-02-14T10:03:57;101294.20;;;6.29;75.34
78615;BME280;67937;52.488;20.952;2024-02-14T10:06:25;101294.86;;;6.30;75.24
78615;BME280;67937;52.488;20.952;2024-02-14T10:08:53;101294.10;;;6.42;74.96
78615;BME280;67937;52.488;20.952;2024-02-14T10:11:22;101295.65;;;6.54;74.18
78615;BME280;67937;52.488;20.952;2024-02-14T10:13:53;101295.32;;;6.65;74.40
78615;BME280;67937;52.488;20.952;2024-02-14T10:16:27;101295.70;;;6.71;73.44
78615;BME280;67937;52.488;20.952;2024-02-14T10:18:55;101290.71;;;6.80;72.68
78615;BME280;67937;52.488;20.952;2024-02-14T10:21:23;101293.73;;;6.83;72.40
78615;BME280;67937;52.488;20.952;2024-02-14T10:23:52;101287.73;;;6.87;71.25
78615;BME280;67937;52.488;20.952;2024-02-14T10:26:20;101288.43;;;6.91;71.08
78615;BME280;67937;52.488;20.952;2024-02-14T10:28:48;101286.40;;;6.96;71.29
78615;BME280;67937;52.488;20.952;2024-02-14T10:31:18;101286.48;;;7.02;70.98
78615;BME280;67937;52.488;20.952;2024-02-14T10:33:46;101286.73;;;7.04;71.01
78615;BME280;67937;52.488;20.952;2024-02-14T10:36:14;101284.46;;;7.10;71.46
78615;BME280;67937;52.488;20.952;2024-02-14T10:38:46;101278.54;;;7.16;70.16
78615;BME280;67937;52.488;20.952;2024-02-14T10:41:17;101276.79;;;7.27;69.16
78615;BME280;67937;52.488;20.952;2024-02-14T10:43:45;101271.08;;;7.35;68.80
78615;BME280;67937;52.488;20.952;2024-02-14T10:46:20;101268.94;;;7.39;67.13
78615;BME280;67937;52.488;20.952;2024-02-14T10:49:04;101264.96;;;7.45;67.90
78615;BME280;67937;52.488;20.952;2024-02-14T10:51:34;101257.63;;;7.57;66.85
78615;BME280;67937;52.488;20.952;2024-02-14T10:54:04;101256.09;;;7.60;67.12
78615;BME280;67937;52.488;20.952;2024-02-14T10:56:39;101259.47;;;7.66;66.97
78615;BME280;67937;52.488;20.952;2024-02-14T10:59:11;101258.75;;;7.72;66.26
78615;BME280;67937;52.488;20.952;2024-02-14T11:01:42;101260.88;;;7.75;66.20
78615;BME280;67937;52.488;20.952;2024-02-14T11:04:11;101260.73;;;7.82;66.28
78615;BME280;67937;52.488;20.952;2024-02-14T11:06:46;101260.84;;;7.87;67.15
78615;BME280;67937;52.488;20.952;2024-02-14T11:09:14;101258.11;;;7.95;65.49
78615;BME280;67937;52.488;20.952;2024-02-14T11:11:43;101252.93;;;7.96;64.89
78615;BME280;67937;52.488;20.952;2024-02-14T11:14:20;101248.73;;;8.02;64.25
78615;BME280;67937;52.488;20.952;2024-02-14T11:16:48;101243.85;;;7.99;64.16
78615;BME280;67937;52.488;20.952;2024-02-14T11:19:30;101245.46;;;7.98;64.64
78615;BME280;67937;52.488;20.952;2024-02-14T11:22:10;101247.71;;;8.02;64.48
78615;BME280;67937;52.488;20.952;2024-02-14T11:24:38;101245.31;;;8.14;64.36
78615;BME280;67937;52.488;20.952;2024-02-14T11:27:12;101239.83;;;8.17;63.47
78615;BME280;67937;52.488;20.952;2024-02-14T11:29:50;101241.48;;;8.16;62.81
78615;BME280;67937;52.488;20.952;2024-02-14T11:32:19;101244.41;;;8.17;62.18
78615;BME280;67937;52.488;20.952;2024-02-14T11:34:56;101240.66;;;8.18;62.51
78615;BME280;67937;52.488;20.952;2024-02-14T11:37:28;101244.45;;;8.23;62.31
78615;BME280;67937;52.488;20.952;2024-02-14T11:39:57;101244.76;;;8.34;61.95
78615;BME280;67937;52.488;20.952;2024-02-14T11:42:25;101243.34;;;8.37;62.27
78615;BME280;67937;52.488;20.952;2024-02-14T11:44:54;101243.00;;;8.49;62.55
78615;BME280;67937;52.488;20.952;2024-02-14T11:47:23;101238.23;;;8.65;61.32
78615;BME280;67937;52.488;20.952;2024-02-14T11:49:51;101236.47;;;8.68;60.31
78615;BME280;67937;52.488;20.952;2024-02-14T11:52:19;101233.95;;;8.78;61.44
78615;BME280;67937;52.488;20.952;2024-02-14T11:54:47;101233.23;;;8.87;60.15
78615;BME280;67937;52.488;20.952;2024-02-14T11:57:17;101230.23;;;8.90;59.85
78615;BME280;67937;52.488;20.952;2024-02-14T11:59:48;101231.29;;;8.93;60.37
78615;BME280;67937;52.488;20.952;2024-02-14T12:02:19;101229.30;;;9.12;59.96
78615;BME280;67937;52.488;20.952;2024-02-14T12:04:48;101233.27;;;9.22;59.49
78615;BME280;67937;52.488;20.952;2024-02-14T12:07:20;101228.65;;;9.32;59.68
78615;BME280;67937;52.488;20.952;2024-02-14T12:09:48;101228.01;;;9.42;59.11
78615;BME280;67937;52.488;20.952;2024-02-14T12:12:17;101225.36;;;9.45;59.18
78615;BME280;67937;52.488;20.952;2024-02-14T12:14:46;101228.70;;;9.65;58.66
78615;BME280;67937;52.488;20.952;2024-02-14T12:17:19;101228.66;;;9.69;57.98
78615;BME280;67937;52.488;20.952;2024-02-14T12:19:47;101222.17;;;9.56;57.44
78615;BME280;67937;52.488;20.952;2024-02-14T12:22:17;101223.59;;;9.57;58.12
78615;BME280;67937;52.488;20.952;2024-02-14T12:24:46;101226.02;;;9.72;57.62
78615;BME280;67937;52.488;20.952;2024-02-14T12:27:17;101229.73;;;9.71;57.33
78615;BME280;67937;52.488;20.952;2024-02-14T12:29:46;101231.58;;;9.61;57.82
78615;BME280;67937;52.488;20.952;2024-02-14T12:32:16;101229.71;;;9.60;57.57
78615;BME280;67937;52.488;20.952;2024-02-14T12:34:45;101225.35;;;9.57;57.80
78615;BME280;67937;52.488;20.952;2024-02-14T12:37:12;101219.25;;;9.47;58.15
78615;BME280;67937;52.488;20.952;2024-02-14T12:39:41;101216.91;;;9.47;57.30
78615;BME280;67937;52.488;20.952;2024-02-14T12:42:09;101214.24;;;9.42;57.11
78615;BME280;67937;52.488;20.952;2024-02-14T12:44:38;101212.90;;;9.47;56.69
78615;BME280;67937;52.488;20.952;2024-02-14T12:47:06;101215.59;;;9.44;56.22
78615;BME280;67937;52.488;20.952;2024-02-14T12:49:34;101214.83;;;9.42;57.18
78615;BME280;67937;52.488;20.952;2024-02-14T12:52:02;101216.98;;;9.41;56.87
78615;BME280;67937;52.488;20.952;2024-02-14T12:54:31;101214.06;;;9.40;56.52
78615;BME280;67937;52.488;20.952;2024-02-14T12:56:59;101214.16;;;9.44;56.98